East Weston, Colorado
Current Conditions -  °F | °C
As of 7:11 PM on Saturday 22 Nov 2014 (Local Time) from KVTP Reporting Station
Clear Clear  
Wind Chill: 17°   Ceiling: Unl
Heat Index: 30°   Visibility: 10mi
Dew Point: 12°   Wind: 21mph
Humidity: 47%   Direction: 200°SSW
Pressure: 29.8"   Gusts: 47mph
Location:  37.1566°N, 104.956°W
Report Text: KVTP 230211Z AUTO 20018G41KT 160V260 10SM CLR M01/M11 A2980 RMK AO2
Loading
Personal Weather Stations






























Interactive Weather Map New forecast layout! Learn more

10-Day Weather Forecast

Advertisements
Track Severe Weather on mobile